Time;durP1;ratioP1;P1;durP2;ratioP2;P2;SDS_P1;SDS_P2;PMS_P1;PMS_P2;Temp;Humidity;BMP_temperature;BMP_pressure;BME280_temperature;BME280_humidity;BME280_pressure;Samples;Min_cycle;Max_cycle;Signal;HPM_P1;HPM_P2
2022/06/08 00:02:17;;;;;;;2.80;1.20;;;13.30;99.90;;;;;;5051890;28;20411;-78
2022/06/08 00:04:43;;;;;;;2.70;1.27;;;13.30;99.90;;;;;;5051169;28;20435;-79
2022/06/08 00:07:09;;;;;;;2.53;1.30;;;13.30;99.90;;;;;;5051544;28;20415;-79
2022/06/08 00:09:35;;;;;;;2.87;1.57;;;13.30;99.90;;;;;;5051493;28;20174;-79
2022/06/08 00:12:03;;;;;;;1.90;1.27;;;13.30;99.90;;;;;;5051475;28;20427;-78
2022/06/08 00:14:28;;;;;;;3.73;1.87;;;13.30;99.90;;;;;;5051498;28;20186;-79
2022/06/08 00:16:54;;;;;;;3.73;1.50;;;13.30;99.90;;;;;;5051147;28;20462;-79
2022/06/08 00:19:20;;;;;;;3.70;1.70;;;13.30;99.90;;;;;;5051533;28;20256;-79
2022/06/08 00:21:46;;;;;;;2.37;1.03;;;13.30;99.90;;;;;;5051355;28;20178;-79
2022/06/08 00:24:11;;;;;;;7.13;1.23;;;13.30;99.90;;;;;;5051140;28;20244;-79
2022/06/08 00:26:37;;;;;;;2.43;1.40;;;13.30;99.90;;;;;;5051454;28;20363;-79
2022/06/08 00:29:04;;;;;;;2.00;1.20;;;13.30;99.90;;;;;;5051868;28;20206;-78
2022/06/08 00:31:30;;;;;;;2.70;1.57;;;13.30;99.90;;;;;;5051387;28;20181;-79
2022/06/08 00:33:56;;;;;;;2.77;1.57;;;13.30;99.90;;;;;;5051537;28;20428;-80
2022/06/08 00:36:21;;;;;;;2.80;1.67;;;13.30;99.90;;;;;;5051168;28;20189;-79
2022/06/08 00:38:47;;;;;;;4.27;1.90;;;13.30;99.90;;;;;;5050977;28;20292;-79
2022/06/08 00:41:27;;;;;;;3.80;2.00;;;13.30;99.90;;;;;;5051393;28;20177;-80
2022/06/08 00:43:54;;;;;;;3.20;1.77;;;13.30;99.90;;;;;;5051078;28;20260;-79
2022/06/08 00:46:20;;;;;;;7.90;1.70;;;13.30;99.90;;;;;;5050765;28;20915;-80
2022/06/08 00:48:54;;;;;;;3.87;1.60;;;13.20;99.90;;;;;;5050642;28;20404;-80
2022/06/08 00:51:20;;;;;;;2.57;1.40;;;13.20;99.90;;;;;;5050742;28;20224;-79
2022/06/08 00:53:55;;;;;;;3.20;1.63;;;13.20;99.90;;;;;;5050705;28;20949;-79
2022/06/08 00:56:29;;;;;;;3.33;1.90;;;13.20;99.90;;;;;;5051198;28;20521;-79
2022/06/08 00:58:57;;;;;;;6.83;1.40;;;13.20;99.90;;;;;;5050838;28;20498;-79
2022/06/08 01:01:23;;;;;;;5.40;1.80;;;13.20;99.90;;;;;;5050899;28;20519;-79
2022/06/08 01:03:49;;;;;;;4.90;1.43;;;13.10;99.90;;;;;;5049859;28;20448;-80
2022/06/08 01:06:21;;;;;;;6.40;2.13;;;13.10;99.90;;;;;;5050379;28;20503;-80
2022/06/08 01:08:53;;;;;;;2.30;1.40;;;13.10;99.90;;;;;;5050282;28;20911;-80
2022/06/08 01:11:43;;;;;;;2.50;1.50;;;13.10;99.90;;;;;;5050170;28;20446;-79
2022/06/08 01:14:12;;;;;;;2.50;1.70;;;13.10;99.90;;;;;;5050435;28;20431;-80
2022/06/08 01:16:41;;;;;;;2.70;1.47;;;13.10;99.90;;;;;;5050379;28;20926;-80
2022/06/08 01:19:07;;;;;;;3.00;1.57;;;13.00;99.90;;;;;;5050337;28;20416;-79
2022/06/08 01:21:33;;;;;;;5.50;1.87;;;13.00;99.90;;;;;;5050245;28;20408;-80
2022/06/08 01:24:01;;;;;;;3.30;1.83;;;13.00;99.90;;;;;;5049893;28;20508;-80
2022/06/08 01:26:36;;;;;;;4.83;1.80;;;13.00;99.90;;;;;;5049910;28;20181;-80
2022/06/08 01:29:32;;;;;;;2.40;1.57;;;13.00;99.90;;;;;;5050272;28;20822;-80
2022/06/08 01:32:03;;;;;;;2.10;1.10;;;13.00;99.90;;;;;;5050045;28;20396;-80
2022/06/08 01:34:32;;;;;;;4.83;1.37;;;12.90;99.90;;;;;;5050137;28;20741;-80
2022/06/08 01:37:06;;;;;;;3.83;1.87;;;12.90;99.90;;;;;;5049617;28;20460;-80
2022/06/08 01:39:50;;;;;;;2.70;1.60;;;12.90;99.90;;;;;;5050029;28;20420;-79
2022/06/08 01:42:24;;;;;;;2.47;1.30;;;12.90;99.90;;;;;;5049699;28;20491;-80
2022/06/08 01:48:28;;;;;;;3.10;1.57;;;12.80;99.90;;;;;;5049870;28;20408;-80
2022/06/08 01:51:09;;;;;;;5.70;1.50;;;12.80;99.90;;;;;;5049939;28;20470;-80
2022/06/08 01:53:58;;;;;;;2.23;1.40;;;12.80;99.90;;;;;;5029463;28;20424;-80
2022/06/08 01:56:42;;;;;;;2.57;1.43;;;12.80;99.90;;;;;;5029426;28;20492;-80
2022/06/08 01:59:19;;;;;;;9.63;2.07;;;12.80;99.90;;;;;;5029401;28;20419;-80
2022/06/08 02:02:10;;;;;;;6.03;1.40;;;12.80;99.90;;;;;;5029909;28;20413;-80
2022/06/08 02:04:57;;;;;;;2.90;1.37;;;12.80;99.90;;;;;;5048737;28;20621;-80
2022/06/08 02:07:33;;;;;;;6.00;1.53;;;12.80;99.90;;;;;;5049488;28;20400;-80
2022/06/08 02:10:02;;;;;;;4.93;2.10;;;12.70;99.90;;;;;;5049517;28;20419;-79
2022/06/08 02:12:33;;;;;;;2.23;1.30;;;12.70;99.90;;;;;;5049177;28;20416;-80
2022/06/08 02:15:07;;;;;;;3.40;1.50;;;12.70;99.90;;;;;;5049457;28;20419;-80
2022/06/08 02:17:32;;;;;;;2.30;1.27;;;12.60;99.90;;;;;;5049369;28;20602;-80
2022/06/08 02:20:06;;;;;;;3.90;1.70;;;12.50;99.90;;;;;;5048052;28;20964;-80
2022/06/08 02:22:42;;;;;;;2.60;1.50;;;12.50;99.90;;;;;;5048808;28;20232;-80
2022/06/08 02:25:09;;;;;;;10.00;1.37;;;12.50;99.90;;;;;;5048884;28;20437;-80
2022/06/08 02:27:44;;;;;;;3.30;1.87;;;12.50;99.90;;;;;;5048564;28;20893;-80
2022/06/08 02:30:14;;;;;;;10.00;1.57;;;12.50;99.90;;;;;;5048952;28;20757;-80
2022/06/08 02:36:37;;;;;;;3.30;1.60;;;12.40;99.90;;;;;;5048441;28;20466;-80
2022/06/08 02:39:05;;;;;;;2.50;1.33;;;12.40;99.90;;;;;;5036927;28;20483;-79
2022/06/08 02:41:33;;;;;;;2.47;1.10;;;12.40;99.90;;;;;;5048388;28;21034;-80
2022/06/08 02:44:04;;;;;;;2.90;1.40;;;12.40;99.90;;;;;;5048566;28;20409;-80
2022/06/08 02:46:38;;;;;;;2.73;1.53;;;12.40;99.90;;;;;;5048953;28;21034;-80
2022/06/08 02:49:08;;;;;;;5.40;1.63;;;12.30;99.90;;;;;;5048249;28;20688;-80
2022/06/08 02:51:34;;;;;;;2.37;1.20;;;12.30;99.90;;;;;;5049168;28;20439;-80
2022/06/08 02:54:05;;;;;;;4.13;1.50;;;12.20;99.90;;;;;;5048975;28;20845;-80
2022/06/08 02:56:44;;;;;;;5.30;1.57;;;12.20;99.90;;;;;;5048601;28;20458;-80
2022/06/08 02:59:19;;;;;;;2.30;1.20;;;12.20;99.90;;;;;;5048502;28;20580;-80
2022/06/08 03:01:56;;;;;;;4.33;1.17;;;12.20;99.90;;;;;;5048789;28;20443;-80
2022/06/08 03:04:27;;;;;;;3.83;1.33;;;12.20;99.90;;;;;;5047796;28;20519;-80
2022/06/08 03:06:58;;;;;;;5.10;1.50;;;12.20;99.90;;;;;;5048197;28;20423;-80
2022/06/08 03:09:25;;;;;;;2.40;1.20;;;12.20;99.90;;;;;;5048003;28;20467;-80
2022/06/08 03:11:56;;;;;;;4.90;1.70;;;12.20;99.90;;;;;;5048171;28;20452;-80
2022/06/08 03:14:22;;;;;;;5.73;1.50;;;12.20;99.90;;;;;;5047946;28;20405;-80
2022/06/08 03:16:58;;;;;;;2.73;1.27;;;12.20;99.90;;;;;;5047867;28;20772;-80
2022/06/08 03:19:26;;;;;;;3.30;1.50;;;12.20;99.90;;;;;;5048234;28;20158;-80
2022/06/08 03:21:54;;;;;;;2.23;0.87;;;12.10;99.90;;;;;;5048397;28;20951;-80
2022/06/08 03:24:21;;;;;;;2.87;1.43;;;12.10;99.90;;;;;;5048111;28;20951;-80
2022/06/08 03:26:54;;;;;;;4.83;1.13;;;12.20;99.90;;;;;;5048211;28;20420;-79
2022/06/08 03:29:20;;;;;;;6.30;1.30;;;12.20;99.90;;;;;;5047767;28;20401;-80
2022/06/08 03:31:46;;;;;;;2.77;1.33;;;12.20;99.90;;;;;;5047737;28;20432;-80
2022/06/08 03:34:12;;;;;;;6.10;1.27;;;12.20;99.90;;;;;;5047732;28;20424;-80
2022/06/08 03:36:38;;;;;;;3.37;1.73;;;12.20;99.90;;;;;;5047320;28;20412;-80
2022/06/08 03:39:04;;;;;;;6.27;1.30;;;12.20;99.90;;;;;;5047791;28;20209;-80
2022/06/08 03:41:31;;;;;;;3.80;1.40;;;12.30;99.90;;;;;;5048068;28;20416;-80
2022/06/08 03:43:57;;;;;;;8.97;1.50;;;12.30;99.90;;;;;;5054794;28;20426;-80
2022/06/08 03:46:23;;;;;;;1.93;0.97;;;12.40;99.90;;;;;;5059753;28;20774;-80
2022/06/08 03:48:51;;;;;;;3.73;1.17;;;12.40;99.90;;;;;;5065564;28;20490;-80
2022/06/08 03:51:17;;;;;;;16.40;1.50;;;12.40;99.90;;;;;;5050869;28;20368;-80
2022/06/08 03:54:05;;;;;;;3.73;1.60;;;12.50;99.90;;;;;;5067770;28;20419;-80
2022/06/08 03:56:33;;;;;;;1.77;0.93;;;12.50;99.90;;;;;;5067968;28;20806;-79
2022/06/08 03:58:59;;;;;;;4.10;1.33;;;12.50;99.90;;;;;;5067386;28;20486;-80
2022/06/08 04:01:25;;;;;;;6.60;2.00;;;12.50;99.90;;;;;;5067298;28;20418;-79
2022/06/08 04:03:52;;;;;;;2.70;1.17;;;12.60;99.90;;;;;;5067043;28;20434;-80
2022/06/08 04:06:19;;;;;;;12.60;1.40;;;12.60;99.90;;;;;;5067869;28;20411;-80
2022/06/08 04:08:45;;;;;;;6.30;1.10;;;12.70;99.90;;;;;;5067381;28;20963;-80
2022/06/08 04:11:11;;;;;;;5.83;1.30;;;12.70;99.90;;;;;;5067720;28;20419;-80
2022/06/08 04:13:37;;;;;;;1.97;0.90;;;12.70;99.90;;;;;;5067368;28;20232;-80
2022/06/08 04:16:03;;;;;;;3.43;1.23;;;12.70;99.90;;;;;;5067888;28;20179;-80
2022/06/08 04:18:30;;;;;;;4.10;1.30;;;12.70;99.90;;;;;;5054190;28;20463;-79
2022/06/08 04:20:58;;;;;;;9.30;1.43;;;12.70;99.90;;;;;;5047735;28;20417;-80
2022/06/08 04:23:25;;;;;;;4.10;1.73;;;12.60;99.90;;;;;;5047329;28;20700;-80
2022/06/08 04:25:52;;;;;;;4.37;1.57;;;12.60;99.90;;;;;;5047978;28;20741;-80
2022/06/08 04:28:20;;;;;;;7.13;1.30;;;12.60;99.90;;;;;;5046980;28;20427;-80
2022/06/08 04:30:46;;;;;;;1.93;0.93;;;12.50;99.90;;;;;;5047298;28;20416;-80
2022/06/08 04:33:12;;;;;;;2.07;0.97;;;12.50;99.90;;;;;;5047257;28;20613;-80
2022/06/08 04:35:39;;;;;;;3.23;1.47;;;12.50;99.90;;;;;;5047652;28;20875;-80
2022/06/08 04:38:06;;;;;;;5.00;1.20;;;12.50;99.90;;;;;;5047177;28;20875;-80
2022/06/08 04:40:32;;;;;;;6.43;1.73;;;12.50;99.90;;;;;;5047397;28;20413;-79
2022/06/08 04:42:59;;;;;;;8.70;1.40;;;12.60;99.90;;;;;;5049644;28;21092;-79
2022/06/08 04:45:25;;;;;;;13.23;1.97;;;12.60;99.90;;;;;;5051286;28;20859;-80
2022/06/08 04:47:51;;;;;;;3.30;1.10;;;12.70;99.90;;;;;;5050732;28;20420;-79
2022/06/08 04:50:17;;;;;;;3.60;0.97;;;12.70;99.90;;;;;;5051244;28;20427;-80
2022/06/08 04:52:42;;;;;;;3.40;1.30;;;12.70;99.90;;;;;;5064655;28;20234;-80
2022/06/08 04:55:11;;;;;;;2.67;1.60;;;12.70;99.90;;;;;;5070662;28;20173;-80
2022/06/08 04:57:37;;;;;;;4.57;1.20;;;12.80;99.90;;;;;;5070344;28;20201;-79
2022/06/08 05:00:10;;;;;;;2.43;1.10;;;12.80;99.90;;;;;;5070463;28;20419;-80
2022/06/08 05:02:48;;;;;;;2.30;1.00;;;12.90;99.90;;;;;;5070424;28;20411;-80
2022/06/08 05:05:26;;;;;;;6.40;1.47;;;12.90;99.90;;;;;;5070154;28;20443;-80
2022/06/08 05:07:53;;;;;;;1.60;0.70;;;13.00;99.90;;;;;;5070523;28;20426;-80
2022/06/08 05:10:20;;;;;;;9.23;1.77;;;12.90;99.90;;;;;;5070681;28;20422;-80
2022/06/08 05:12:46;;;;;;;4.67;1.43;;;13.00;99.90;;;;;;5070491;28;20453;-80
2022/06/08 05:15:15;;;;;;;9.80;1.40;;;13.00;99.90;;;;;;5070700;28;20423;-81
2022/06/08 05:17:41;;;;;;;2.50;1.30;;;13.10;99.90;;;;;;5063570;28;20218;-81
2022/06/08 05:20:09;;;;;;;11.67;1.43;;;13.00;99.90;;;;;;5050243;28;20419;-81
2022/06/08 05:22:36;;;;;;;5.10;1.37;;;13.00;99.90;;;;;;5050171;28;20569;-81
2022/06/08 05:25:07;;;;;;;3.50;1.00;;;13.00;99.90;;;;;;5050231;28;20415;-80
2022/06/08 05:27:33;;;;;;;3.23;1.20;;;13.00;99.90;;;;;;5050192;28;20500;-80
2022/06/08 05:29:58;;;;;;;11.70;1.43;;;13.00;99.90;;;;;;5050327;28;20837;-80
2022/06/08 05:32:24;;;;;;;5.20;1.30;;;13.00;99.90;;;;;;5050614;28;20186;-80
2022/06/08 05:34:50;;;;;;;6.20;1.00;;;13.10;99.90;;;;;;5050255;28;20220;-80
2022/06/08 05:37:16;;;;;;;1.67;0.80;;;13.00;99.90;;;;;;5050076;28;20292;-80
2022/06/08 05:39:41;;;;;;;4.27;1.40;;;13.10;99.90;;;;;;5050557;28;20624;-80
2022/06/08 05:42:08;;;;;;;4.40;1.40;;;13.10;99.90;;;;;;5050144;28;20416;-79
2022/06/08 05:44:35;;;;;;;6.53;1.20;;;13.10;99.90;;;;;;5050368;28;20182;-80
2022/06/08 05:47:02;;;;;;;4.10;1.43;;;13.10;99.90;;;;;;5049494;28;20867;-80
2022/06/08 05:49:32;;;;;;;3.20;1.27;;;13.20;99.90;;;;;;5050171;28;20946;-80
2022/06/08 05:51:58;;;;;;;1.70;0.90;;;13.20;99.90;;;;;;5057463;28;20421;-80
2022/06/08 05:54:24;;;;;;;5.40;1.50;;;13.30;99.90;;;;;;5068573;28;20526;-80
2022/06/08 05:56:49;;;;;;;6.73;1.20;;;13.30;99.90;;;;;;5069214;28;20581;-80
2022/06/08 05:59:16;;;;;;;2.80;1.00;;;13.30;99.90;;;;;;5069872;28;20177;-80
2022/06/08 06:01:41;;;;;;;3.40;1.60;;;13.30;99.90;;;;;;5069735;28;20218;-80
2022/06/08 06:04:07;;;;;;;5.07;1.17;;;13.40;99.90;;;;;;5068850;28;20455;-80
2022/06/08 06:06:34;;;;;;;2.03;1.17;;;13.40;99.90;;;;;;5069157;28;20177;-80
2022/06/08 06:09:01;;;;;;;4.30;1.73;;;13.40;99.90;;;;;;5069191;28;20892;-79
2022/06/08 06:11:26;;;;;;;2.30;1.03;;;13.50;99.90;;;;;;5068869;28;20822;-80
2022/06/08 06:13:52;;;;;;;3.83;1.23;;;13.50;99.90;;;;;;5069331;28;20417;-80
2022/06/08 06:16:18;;;;;;;8.73;0.97;;;13.50;99.90;;;;;;5069254;28;20270;-80
2022/06/08 06:18:44;;;;;;;3.20;1.40;;;13.50;99.90;;;;;;5053735;28;20550;-80
2022/06/08 06:21:20;;;;;;;2.10;1.07;;;13.50;99.90;;;;;;5049503;28;20170;-80
2022/06/08 06:23:46;;;;;;;3.37;1.37;;;13.60;99.90;;;;;;5079364;23;20228;-80
2022/06/08 06:26:12;;;;;;;3.07;0.90;;;13.50;99.90;;;;;;5068878;28;20460;-80
2022/06/08 06:28:38;;;;;;;4.17;1.33;;;13.50;99.90;;;;;;5051107;28;20435;-80
2022/06/08 06:31:04;;;;;;;1.77;1.00;;;13.50;99.90;;;;;;5069007;28;20173;-80
2022/06/08 06:33:31;;;;;;;4.70;1.30;;;13.60;99.90;;;;;;5068998;28;20222;-80
2022/06/08 06:35:56;;;;;;;2.13;0.90;;;13.60;99.90;;;;;;5096006;28;20649;-80
2022/06/08 06:38:22;;;;;;;4.70;1.07;;;13.60;99.90;;;;;;5071629;28;20467;-80
2022/06/08 06:40:47;;;;;;;2.50;1.20;;;13.70;99.90;;;;;;5068840;28;20499;-80
2022/06/08 06:43:13;;;;;;;3.40;1.20;;;13.70;99.90;;;;;;5068838;28;20185;-80
2022/06/08 06:45:39;;;;;;;5.03;1.27;;;13.80;99.90;;;;;;5068895;28;20264;-80
2022/06/08 06:48:05;;;;;;;2.63;1.07;;;13.90;99.90;;;;;;5068404;28;20319;-80
2022/06/08 06:50:31;;;;;;;2.90;1.13;;;14.00;99.90;;;;;;5068578;28;20622;-81
2022/06/08 06:52:59;;;;;;;2.00;1.10;;;14.10;99.90;;;;;;5084307;28;20515;-80
2022/06/08 06:55:30;;;;;;;5.33;1.30;;;14.10;99.90;;;;;;5088502;28;20423;-81
2022/06/08 06:57:57;;;;;;;1.83;0.90;;;14.10;99.90;;;;;;5088268;28;20519;-80
2022/06/08 07:00:23;;;;;;;9.70;1.63;;;14.20;99.90;;;;;;5088877;28;20432;-80
2022/06/08 07:02:49;;;;;;;3.70;0.87;;;14.30;99.90;;;;;;5088531;28;20422;-80
2022/06/08 07:05:23;;;;;;;2.70;1.20;;;14.40;99.90;;;;;;5074949;28;20777;-80
2022/06/08 07:07:49;;;;;;;6.37;1.10;;;14.50;99.90;;;;;;5068137;28;20790;-80
2022/06/08 07:10:16;;;;;;;5.87;1.43;;;14.50;99.90;;;;;;5068497;28;20427;-80
2022/06/08 07:12:42;;;;;;;3.40;1.10;;;14.60;99.90;;;;;;5068600;28;20553;-80
2022/06/08 07:15:11;;;;;;;2.20;0.80;;;14.70;99.90;;;;;;5068421;28;20793;-80
2022/06/08 07:17:37;;;;;;;1.53;0.70;;;14.80;99.90;;;;;;5067857;28;20474;-80
2022/06/08 07:20:04;;;;;;;3.23;1.47;;;14.90;99.90;;;;;;5067691;28;20411;-81
2022/06/08 07:22:30;;;;;;;3.80;1.20;;;15.10;99.90;;;;;;5067823;28;20869;-80
2022/06/08 07:24:56;;;;;;;11.30;0.90;;;15.30;99.90;;;;;;5067973;28;20767;-81
2022/06/08 07:27:22;;;;;;;14.43;1.60;;;15.40;99.90;;;;;;5067902;28;20411;-81
2022/06/08 07:29:48;;;;;;;2.00;0.70;;;15.60;99.90;;;;;;5068045;28;20540;-80
2022/06/08 07:32:15;;;;;;;4.10;1.63;;;15.70;99.90;;;;;;5067946;28;20427;-81
2022/06/08 07:34:40;;;;;;;19.17;1.30;;;16.20;99.90;;;;;;5067688;28;20781;-81
2022/06/08 07:37:06;;;;;;;4.03;1.20;;;16.20;99.90;;;;;;5067713;28;20427;-81
2022/06/08 07:39:32;;;;;;;7.37;1.20;;;16.60;99.90;;;;;;5067918;28;20673;-80
2022/06/08 07:41:58;;;;;;;3.10;1.23;;;17.50;99.90;;;;;;5067890;28;20177;-81
2022/06/08 07:44:24;;;;;;;4.30;1.50;;;18.10;99.90;;;;;;5068409;28;20415;-80
2022/06/08 07:46:50;;;;;;;7.23;1.20;;;18.40;99.50;;;;;;5067487;28;20411;-81
2022/06/08 07:52:05;;;;;;;2.00;1.00;;;18.80;98.00;;;;;;5068201;28;20533;-81
2022/06/08 07:54:31;;;;;;;2.60;1.20;;;19.80;96.40;;;;;;5067785;28;20411;-80
2022/06/08 07:56:58;;;;;;;2.03;0.80;;;20.40;95.20;;;;;;5067465;28;20456;-80
2022/06/08 07:59:27;;;;;;;2.13;1.13;;;21.60;93.70;;;;;;5068347;28;20497;-81
2022/06/08 08:01:53;;;;;;;5.10;1.00;;;22.40;92.00;;;;;;5067613;28;20414;-81
2022/06/08 08:04:18;;;;;;;7.53;1.90;;;23.10;91.20;;;;;;5066923;28;20422;-81
2022/06/08 08:06:44;;;;;;;1.80;0.90;;;23.20;90.50;;;;;;5067608;28;20188;-81
2022/06/08 08:09:17;;;;;;;4.60;1.07;;;23.50;89.20;;;;;;5067459;28;20183;-81
2022/06/08 08:11:45;;;;;;;2.17;0.93;;;23.70;90.00;;;;;;5067311;28;20157;-82
2022/06/08 08:14:12;;;;;;;2.58;0.88;;;23.90;85.70;;;;;;5067761;28;20213;-81
2022/06/08 08:16:39;;;;;;;4.22;1.50;;;23.80;83.70;;;;;;5067549;28;20173;-80
2022/06/08 08:19:04;;;;;;;7.28;0.80;;;24.10;84.80;;;;;;5071349;28;20239;-81
2022/06/08 08:21:32;;;;;;;2.38;0.80;;;24.70;83.40;;;;;;5071683;28;20219;-81
2022/06/08 08:23:59;;;;;;;2.47;1.10;;;24.70;82.10;;;;;;5071381;28;20189;-81
2022/06/08 08:26:26;;;;;;;2.28;1.02;;;25.60;78.90;;;;;;5071320;28;20640;-80
2022/06/08 08:28:52;;;;;;;3.28;0.90;;;25.40;80.70;;;;;;5071586;28;20179;-81
2022/06/08 08:31:18;;;;;;;2.85;1.17;;;25.10;79.30;;;;;;5071165;28;20523;-81
2022/06/08 08:33:43;;;;;;;7.15;1.35;;;25.60;77.30;;;;;;5071077;28;20180;-81
2022/06/08 08:36:09;;;;;;;3.17;0.73;;;25.20;78.50;;;;;;5070753;28;20180;-82
2022/06/08 08:38:35;;;;;;;2.88;0.85;;;25.00;77.70;;;;;;5070715;28;20204;-81
2022/06/08 08:41:02;;;;;;;9.07;1.20;;;24.70;81.00;;;;;;5071382;28;20200;-81
2022/06/08 08:43:36;;;;;;;2.65;0.82;;;24.90;79.50;;;;;;5071000;28;20207;-81
2022/06/08 08:46:21;;;;;;;1.98;0.90;;;24.80;81.60;;;;;;5071144;28;20171;-81
2022/06/08 08:49:03;;;;;;;10.00;1.50;;;24.60;76.30;;;;;;5071084;28;20180;-81
2022/06/08 08:51:44;;;;;;;3.58;1.20;;;24.20;78.10;;;;;;5071142;28;20624;-80
2022/06/08 08:54:28;;;;;;;4.57;0.90;;;23.20;80.70;;;;;;5071171;28;20310;-81
2022/06/08 08:57:28;;;;;;;10.20;2.03;;;22.50;84.10;;;;;;5070727;28;20176;-81
2022/06/08 08:59:55;;;;;;;2.67;1.00;;;22.30;86.50;;;;;;5054855;28;20560;-81
2022/06/08 09:05:16;;;;;;;3.20;1.37;;;22.40;84.30;;;;;;5069673;28;20442;-81
2022/06/08 09:07:43;;;;;;;4.23;1.00;;;22.80;83.50;;;;;;5070265;28;20415;-81
2022/06/08 09:10:20;;;;;;;6.70;1.70;;;22.90;81.30;;;;;;5070548;28;20204;-82
2022/06/08 09:12:46;;;;;;;2.50;0.90;;;23.10;81.90;;;;;;5070833;28;20172;-81
2022/06/08 09:15:15;;;;;;;5.27;1.33;;;23.00;80.30;;;;;;5070635;28;20180;-81
2022/06/08 09:17:57;;;;;;;8.07;1.83;;;23.10;83.80;;;;;;5070412;28;20200;-81
2022/06/08 09:20:35;;;;;;;2.77;1.20;;;23.30;85.00;;;;;;5070942;28;20456;-81
2022/06/08 09:23:20;;;;;;;4.60;1.08;;;23.40;81.80;;;;;;5070343;28;20199;-82
2022/06/08 09:26:05;;;;;;;3.28;1.00;;;23.50;81.20;;;;;;5070510;28;20747;-81
2022/06/08 09:28:33;;;;;;;17.40;1.27;;;23.40;87.00;;;;;;5069832;28;20192;-81
2022/06/08 09:30:59;;;;;;;8.15;1.35;;;23.80;85.10;;;;;;5070376;28;20176;-82
2022/06/08 09:33:37;;;;;;;5.35;1.42;;;24.10;82.30;;;;;;5070129;28;20204;-82
2022/06/08 09:36:22;;;;;;;3.88;1.65;;;24.00;79.90;;;;;;5070576;28;20909;-82
2022/06/08 09:38:48;;;;;;;3.78;0.85;;;24.40;78.90;;;;;;5069925;28;20239;-81
2022/06/08 09:41:13;;;;;;;4.47;1.00;;;24.00;79.60;;;;;;5070423;28;20211;-81
2022/06/08 09:44:17;;;;;;;2.05;0.98;;;23.60;78.70;;;;;;5070246;28;20173;-81
2022/06/08 09:53:02;;;;;;;6.85;1.10;;;23.40;83.10;;;;;;5069805;28;20235;-81
2022/06/08 09:55:40;;;;;;;4.53;1.00;;;23.90;84.40;;;;;;5070362;28;20564;-81
2022/06/08 09:58:21;;;;;;;6.40;1.07;;;23.90;81.10;;;;;;5069354;28;20200;-81
2022/06/08 10:01:01;;;;;;;6.23;1.03;;;23.60;79.00;;;;;;5069553;28;20235;-82
2022/06/08 10:03:51;;;;;;;3.83;0.83;;;22.90;80.20;;;;;;5068507;28;20169;-82
2022/06/08 10:06:26;;;;;;;3.40;1.00;;;22.70;79.00;;;;;;5050025;28;20179;-81
2022/06/08 10:09:20;;;;;;;4.20;1.03;;;22.70;77.60;;;;;;5049628;28;20763;-81
2022/06/08 10:11:58;;;;;;;4.87;1.00;;;22.80;76.30;;;;;;5049960;28;20396;-82
2022/06/08 10:14:36;;;;;;;3.87;0.77;;;23.20;74.50;;;;;;5049476;28;20691;-82
2022/06/08 10:17:23;;;;;;;1.70;0.70;;;23.50;75.60;;;;;;5049691;28;20248;-82
2022/06/08 10:19:56;;;;;;;4.13;1.07;;;23.60;76.00;;;;;;5049397;28;20172;-81
2022/06/08 10:22:27;;;;;;;4.77;0.80;;;23.30;74.40;;;;;;5049350;28;20222;-82
2022/06/08 10:25:00;;;;;;;1.80;0.83;;;23.10;76.90;;;;;;5049425;28;20419;-80
2022/06/08 10:27:54;;;;;;;4.10;1.00;;;23.10;72.90;;;;;;5048974;28;20420;-81
2022/06/08 10:30:32;;;;;;;2.30;0.70;;;23.00;76.30;;;;;;5014238;28;20459;-81
2022/06/08 10:33:16;;;;;;;2.20;0.90;;;23.00;77.30;;;;;;5049330;28;20499;-81
2022/06/08 10:35:54;;;;;;;2.60;1.10;;;22.70;73.40;;;;;;5065018;28;20410;-82
2022/06/08 10:38:30;;;;;;;3.70;0.80;;;22.60;74.50;;;;;;5068827;28;20486;-81
2022/06/08 10:40:56;;;;;;;5.77;0.77;;;22.60;72.10;;;;;;5068236;28;20411;-81
2022/06/08 10:43:34;;;;;;;2.40;0.60;;;22.60;73.50;;;;;;5068796;28;21008;-81
2022/06/08 10:46:01;;;;;;;6.83;1.37;;;22.80;70.30;;;;;;5069253;28;20169;-81
2022/06/08 10:48:42;;;;;;;3.13;1.00;;;23.00;72.70;;;;;;5069656;28;20414;-81
2022/06/08 10:51:11;;;;;;;5.40;0.67;;;23.40;65.20;;;;;;5069184;28;20415;-81
2022/06/08 10:56:28;;;;;;;1.50;0.70;;;23.40;68.40;;;;;;5069176;28;20399;-82
2022/06/08 10:59:03;;;;;;;2.63;0.90;;;23.60;69.50;;;;;;5068657;28;20459;-81
2022/06/08 11:01:51;;;;;;;2.67;0.90;;;23.20;67.80;;;;;;5068422;28;20450;-82
2022/06/08 11:04:32;;;;;;;2.33;0.70;;;22.90;68.00;;;;;;5067972;28;20414;-82
2022/06/08 11:07:09;;;;;;;3.63;0.67;;;22.80;67.10;;;;;;5068206;28;20442;-81
2022/06/08 11:09:34;;;;;;;1.90;0.60;;;22.70;69.10;;;;;;5067957;28;20724;-81
2022/06/08 11:12:22;;;;;;;2.53;0.70;;;22.90;66.40;;;;;;5068222;28;20422;-81
2022/06/08 11:14:47;;;;;;;1.80;0.50;;;23.10;66.30;;;;;;5068444;28;20676;-81
2022/06/08 11:17:25;;;;;;;1.70;0.77;;;23.20;66.00;;;;;;5068161;28;20407;-81
2022/06/08 11:20:18;;;;;;;5.00;0.90;;;23.20;67.60;;;;;;5068020;28;20208;-81
2022/06/08 11:22:50;;;;;;;1.30;0.50;;;23.20;67.40;;;;;;5068237;28;20435;-82
2022/06/08 11:25:24;;;;;;;1.50;0.60;;;23.40;68.20;;;;;;5068590;28;20790;-81
2022/06/08 11:28:27;;;;;;;2.23;1.10;;;23.50;68.80;;;;;;5068254;28;20402;-81
2022/06/08 11:30:56;;;;;;;1.90;0.90;;;23.60;65.50;;;;;;5068096;28;20425;-81
2022/06/08 11:33:22;;;;;;;2.03;0.77;;;23.50;67.30;;;;;;5068215;28;20946;-80
2022/06/08 11:36:21;;;;;;;5.00;1.00;;;23.70;64.40;;;;;;5068244;28;20884;-82
2022/06/08 11:38:59;;;;;;;2.33;1.00;;;23.90;66.00;;;;;;5067978;28;20573;-82
2022/06/08 11:41:38;;;;;;;3.53;0.83;;;24.10;63.70;;;;;;5068475;28;20769;-82
2022/06/08 11:44:15;;;;;;;2.70;0.63;;;24.20;64.70;;;;;;5068482;28;20413;-82
2022/06/08 11:46:46;;;;;;;1.60;0.70;;;24.20;65.20;;;;;;5068238;28;20390;-81
2022/06/08 11:49:36;;;;;;;3.03;0.93;;;24.00;62.60;;;;;;5068878;28;20899;-81
2022/06/08 11:52:24;;;;;;;2.10;0.53;;;24.20;65.60;;;;;;5070797;28;20410;-82
2022/06/08 11:55:11;;;;;;;2.43;0.57;;;24.50;65.90;;;;;;5072197;28;20418;-81
2022/06/08 11:57:48;;;;;;;1.80;0.60;;;24.40;63.40;;;;;;5071880;28;20795;-82
2022/06/08 12:00:25;;;;;;;2.60;0.70;;;24.50;63.10;;;;;;5072025;28;20596;-81
2022/06/08 12:02:58;;;;;;;1.40;0.50;;;24.40;63.50;;;;;;5071912;28;20407;-81
2022/06/08 12:05:27;;;;;;;1.70;0.70;;;24.00;65.40;;;;;;5071570;28;20480;-81
2022/06/08 12:08:18;;;;;;;1.93;0.77;;;23.90;63.50;;;;;;5072350;28;20410;-81
2022/06/08 12:10:44;;;;;;;1.60;0.60;;;23.80;63.00;;;;;;5071769;28;20407;-82
2022/06/08 12:13:22;;;;;;;2.10;0.80;;;23.70;66.60;;;;;;5071926;28;21165;-82
2022/06/08 12:15:52;;;;;;;2.37;0.70;;;23.40;66.80;;;;;;5071749;28;20405;-81
2022/06/08 12:18:27;;;;;;;1.80;0.60;;;23.40;68.00;;;;;;5071574;28;20469;-82
2022/06/08 12:21:13;;;;;;;2.43;0.60;;;23.40;67.00;;;;;;5071537;28;20758;-82
2022/06/08 12:23:43;;;;;;;3.80;1.40;;;23.40;66.60;;;;;;5071964;28;20778;-82
2022/06/08 12:26:18;;;;;;;2.77;1.00;;;23.10;67.60;;;;;;5071846;28;20469;-81
2022/06/08 12:28:49;;;;;;;2.33;0.80;;;23.00;71.70;;;;;;5071152;28;20420;-82
2022/06/08 12:31:25;;;;;;;1.40;0.50;;;23.20;69.30;;;;;;5071513;28;20410;-82
2022/06/08 12:33:51;;;;;;;3.30;0.87;;;23.20;67.60;;;;;;5071304;28;20489;-82
2022/06/08 12:36:26;;;;;;;5.30;1.10;;;23.30;69.50;;;;;;5071111;28;20438;-82
2022/06/08 12:39:18;;;;;;;3.40;0.67;;;23.60;71.00;;;;;;5071022;28;20212;-81
2022/06/08 12:41:51;;;;;;;6.10;2.03;;;23.50;67.40;;;;;;5071191;28;20399;-81
2022/06/08 12:44:16;;;;;;;1.50;0.50;;;23.50;65.50;;;;;;5071405;28;20755;-82
2022/06/08 12:46:58;;;;;;;2.13;0.90;;;23.60;66.60;;;;;;5071326;28;20410;-82
2022/06/08 12:49:46;;;;;;;3.03;1.30;;;23.90;69.90;;;;;;5071296;28;20168;-82
2022/06/08 12:52:25;;;;;;;2.30;0.70;;;23.40;69.50;;;;;;5071231;28;20443;-82
2022/06/08 12:54:51;;;;;;;5.43;0.83;;;23.30;67.70;;;;;;5070840;28;20411;-81
2022/06/08 12:57:23;;;;;;;2.53;0.57;;;23.20;66.50;;;;;;5070360;28;20466;-81
2022/06/08 12:59:51;;;;;;;5.43;1.20;;;23.10;68.70;;;;;;5070858;28;20214;-81
2022/06/08 13:02:21;;;;;;;7.80;0.93;;;23.10;68.90;;;;;;5070432;28;20426;-81
2022/06/08 13:04:48;;;;;;;4.70;0.70;;;23.00;74.70;;;;;;5070236;28;20422;-81
2022/06/08 13:07:18;;;;;;;2.23;0.60;;;23.00;69.10;;;;;;5070925;28;20418;-81
2022/06/08 13:09:44;;;;;;;5.50;0.90;;;22.90;70.80;;;;;;5071373;28;20506;-81
2022/06/08 13:12:14;;;;;;;3.73;0.80;;;22.90;71.20;;;;;;5070455;28;20933;-80
2022/06/08 13:14:41;;;;;;;2.43;0.90;;;22.90;71.40;;;;;;5070720;28;20415;-81
2022/06/08 13:17:09;;;;;;;3.83;0.77;;;23.00;70.10;;;;;;5070360;28;20419;-81
2022/06/08 13:19:35;;;;;;;1.50;0.60;;;23.20;72.40;;;;;;5070733;28;20404;-81
2022/06/08 13:22:01;;;;;;;1.90;0.70;;;23.30;71.70;;;;;;5070316;28;20907;-82
2022/06/08 13:24:26;;;;;;;1.97;0.67;;;23.60;72.70;;;;;;5070499;28;20446;-81
2022/06/08 13:26:53;;;;;;;2.80;1.00;;;23.70;69.70;;;;;;5070091;28;20198;-80
2022/06/08 13:29:20;;;;;;;3.10;1.27;;;23.70;69.00;;;;;;5070824;28;20702;-81